createdAt,value
2018-12-07T00:00:26.697Z,100532.02
2018-12-07T00:02:56.314Z,100536.02
2018-12-07T00:05:25.324Z,100535.47
2018-12-07T00:07:55.445Z,100534.15
2018-12-07T00:10:24.493Z,100535.47
2018-12-07T00:12:53.482Z,100538.92
2018-12-07T00:15:22.518Z,100534.02
2018-12-07T00:17:51.569Z,100537.92
2018-12-07T00:20:20.619Z,100532.83
2018-12-07T00:22:49.633Z,100522.66
2018-12-07T00:25:18.659Z,100519.08
2018-12-07T00:33:34.732Z,100514.10
2018-12-07T00:36:10.527Z,100516.69
2018-12-07T00:38:39.587Z,100510.45
2018-12-07T00:41:08.579Z,100507.77
2018-12-07T00:43:37.593Z,100504.26
2018-12-07T00:46:06.637Z,100507.77
2018-12-07T00:48:35.638Z,100504.16
2018-12-07T00:51:04.644Z,100502.61
2018-12-07T00:53:33.651Z,100490.25
2018-12-07T00:56:02.664Z,100495.86
2018-12-07T00:58:31.666Z,100495.45
2018-12-07T01:01:00.686Z,100496.67
2018-12-07T01:17:07.015Z,100483.08
2018-12-07T01:22:20.431Z,100476.14
2018-12-07T01:24:52.645Z,100474.27
2018-12-07T01:27:24.127Z,100467.33
2018-12-07T01:29:53.695Z,100472.27
2018-12-07T01:32:23.163Z,100478.80
2018-12-07T01:34:52.683Z,100480.44
2018-12-07T01:37:22.147Z,100476.02
2018-12-07T01:40:10.358Z,100462.27
2018-12-07T01:42:40.909Z,100470.36
2018-12-07T01:45:11.929Z,100467.23
2018-12-07T01:47:46.256Z,100465.39
2018-12-07T01:50:24.545Z,100457.40
2018-12-07T01:52:57.986Z,100470.72
2018-12-07T01:55:27.545Z,100472.14
2018-12-07T01:58:03.361Z,100473.81
2018-12-07T02:07:56.581Z,100465.66
2018-12-07T02:13:25.512Z,100468.06
2018-12-07T02:16:00.625Z,100470.68
2018-12-07T02:18:36.576Z,100465.91
2018-12-07T02:21:15.995Z,100460.33
2018-12-07T02:23:51.001Z,100465.88
2018-12-07T02:26:27.553Z,100461.35
2018-12-07T02:29:03.890Z,100461.09
2018-12-07T02:31:40.414Z,100457.13
2018-12-07T02:34:16.518Z,100457.69
2018-12-07T02:36:52.682Z,100456.81
2018-12-07T02:39:29.240Z,100456.36
2018-12-07T02:42:06.768Z,100454.16
2018-12-07T02:44:51.305Z,100454.06
2018-12-07T02:47:29.814Z,100445.67
2018-12-07T02:50:08.436Z,100440.93
2018-12-07T02:52:50.792Z,100441.87
2018-12-07T02:55:27.236Z,100434.70
2018-12-07T02:58:11.559Z,100424.03
2018-12-07T03:00:49.180Z,100436.44
2018-12-07T03:03:27.087Z,100434.21
2018-12-07T03:06:01.407Z,100431.56
2018-12-07T03:08:34.714Z,100433.13
2018-12-07T03:11:21.779Z,100437.31
2018-12-07T03:13:53.349Z,100438.67
2018-12-07T03:16:26.162Z,100435.22
2018-12-07T03:18:59.164Z,100440.97
2018-12-07T03:21:32.805Z,100430.83
2018-12-07T03:24:06.924Z,100426.76
2018-12-07T03:26:40.288Z,100418.44
2018-12-07T03:29:28.773Z,100414.95
2018-12-07T03:32:04.242Z,100415.78
2018-12-07T03:34:36.359Z,100416.14
2018-12-07T03:37:09.430Z,100414.78
2018-12-07T03:39:39.069Z,100408.97
2018-12-07T03:42:09.659Z,100407.61
2018-12-07T03:44:38.794Z,100408.48
2018-12-07T03:47:08.300Z,100409.73
2018-12-07T03:49:37.466Z,100407.67
2018-12-07T03:52:08.504Z,100406.31
2018-12-07T03:54:40.619Z,100399.91
2018-12-07T03:57:09.964Z,100402.45
2018-12-07T03:59:39.149Z,100394.82
2018-12-07T04:02:08.389Z,100407.74
2018-12-07T04:04:37.782Z,100412.13
2018-12-07T04:07:06.816Z,100398.06
2018-12-07T04:09:35.844Z,100403.22
2018-12-07T04:15:00.324Z,100394.92
2018-12-07T04:17:31.133Z,100401.55
2018-12-07T04:20:00.691Z,100394.96
2018-12-07T04:22:47.198Z,100396.45
2018-12-07T04:25:23.953Z,100379.60
2018-12-07T04:27:53.763Z,100393.81
2018-12-07T04:30:28.961Z,100393.81
2018-12-07T04:33:02.650Z,100394.82
2018-12-07T04:35:37.174Z,100391.72
2018-12-07T04:38:09.026Z,100381.59
2018-12-07T04:40:41.772Z,100383.78
2018-12-07T04:43:16.336Z,100384.12
2018-12-07T04:45:50.764Z,100370.89
2018-12-07T04:48:25.303Z,100370.89
2018-12-07T04:51:01.060Z,100360.75
2018-12-07T04:53:45.625Z,100348.67
2018-12-07T04:56:20.453Z,100360.58
2018-12-07T04:58:56.390Z,100363.75
2018-12-07T05:01:31.950Z,100364.17
2018-12-07T05:04:08.114Z,100361.48
2018-12-07T05:06:44.730Z,100355.42
2018-12-07T05:09:23.402Z,100361.10
2018-12-07T05:11:54.054Z,100362.73
2018-12-07T05:14:26.926Z,100357.66
2018-12-07T05:16:58.096Z,100351.91
2018-12-07T05:19:27.924Z,100355.28
2018-12-07T05:24:54.048Z,100349.98
2018-12-07T05:27:27.303Z,100355.66
2018-12-07T05:29:58.891Z,100356.68
2018-12-07T05:32:41.278Z,100350.48
2018-12-07T05:35:14.060Z,100342.30
2018-12-07T05:37:49.846Z,100328.89
2018-12-07T05:40:20.038Z,100337.59
2018-12-07T05:42:54.771Z,100334.74
2018-12-07T05:48:23.613Z,100334.36
2018-12-07T05:50:49.712Z,100326.77
2018-12-07T05:53:20.570Z,100323.66
2018-12-07T05:55:50.959Z,100322.27
2018-12-07T05:58:25.310Z,100322.83
2018-12-07T06:00:59.263Z,100328.53
2018-12-07T06:03:43.047Z,100308.39
2018-12-07T06:09:11.170Z,100320.14
2018-12-07T06:11:45.940Z,100321.88
2018-12-07T06:14:15.559Z,100319.13
2018-12-07T06:16:59.149Z,100310.77
2018-12-07T06:23:18.724Z,100304.19
2018-12-07T09:08:30.848Z,100093.95
2018-12-07T09:11:07.062Z,100082.37
2018-12-07T12:10:02.243Z,99706.78
2018-12-07T13:53:23.339Z,99542.97
